createdAt,value
2023-03-02T00:01:43.944Z,83.12
2023-03-02T00:04:14.420Z,83.39
2023-03-02T00:06:40.829Z,83.06
2023-03-02T00:09:07.247Z,82.55
2023-03-02T00:11:37.470Z,83.26
2023-03-02T00:14:03.878Z,83.80
2023-03-02T00:16:30.675Z,82.92
2023-03-02T00:18:57.628Z,83.46
2023-03-02T00:21:24.625Z,83.23
2023-03-02T00:23:52.343Z,82.75
2023-03-02T00:26:19.100Z,83.05
2023-03-02T00:28:45.475Z,83.20
2023-03-02T00:31:11.894Z,82.61
2023-03-02T00:33:38.274Z,82.21
2023-03-02T00:36:04.979Z,81.90
2023-03-02T00:38:31.363Z,82.38
2023-03-02T00:40:59.280Z,82.03
2023-03-02T00:43:27.996Z,82.58
2023-03-02T00:45:55.273Z,82.42
2023-03-02T00:48:21.889Z,82.06
2023-03-02T00:50:48.304Z,81.45
2023-03-02T00:53:14.688Z,81.66
2023-03-02T00:55:41.145Z,81.46
2023-03-02T00:58:07.550Z,82.04
2023-03-02T01:00:35.551Z,81.84
2023-03-02T01:03:02.076Z,81.73
2023-03-02T01:05:28.825Z,80.99
2023-03-02T01:07:55.344Z,81.02
2023-03-02T01:10:21.728Z,81.52
2023-03-02T01:12:48.103Z,82.02
2023-03-02T01:15:14.473Z,81.75
2023-03-02T01:17:42.835Z,82.41
2023-03-02T01:20:11.767Z,81.87
2023-03-02T01:22:38.147Z,82.11
2023-03-02T01:25:05.001Z,81.31
2023-03-02T01:27:31.623Z,81.46
2023-03-02T01:29:57.966Z,81.11
2023-03-02T01:32:24.419Z,81.72
2023-03-02T01:34:50.798Z,81.27
2023-03-02T01:37:17.169Z,81.28
2023-03-02T01:39:43.542Z,82.08
2023-03-02T01:42:09.970Z,81.12
2023-03-02T01:44:45.236Z,81.53
2023-03-02T01:47:22.700Z,81.38
2023-03-02T01:50:02.419Z,81.14
2023-03-02T01:52:32.464Z,81.87
2023-03-02T01:55:01.259Z,82.18
2023-03-02T01:57:30.313Z,81.75
2023-03-02T02:00:01.876Z,82.04
2023-03-02T02:02:28.717Z,82.14
2023-03-02T02:04:56.459Z,81.67
2023-03-02T02:07:22.808Z,81.88
2023-03-02T02:09:51.542Z,81.61
2023-03-02T02:12:22.245Z,81.90
2023-03-02T02:14:49.856Z,81.38
2023-03-02T02:17:18.375Z,81.61
2023-03-02T02:20:20.985Z,81.93
2023-03-02T02:23:00.309Z,82.19
2023-03-02T02:25:41.982Z,82.33
2023-03-02T02:28:16.145Z,81.98
2023-03-02T02:30:43.687Z,81.19
2023-03-02T02:33:16.728Z,79.43
2023-03-02T02:35:46.554Z,79.38
2023-03-02T02:38:15.791Z,80.50
2023-03-02T02:40:49.761Z,80.88
2023-03-02T02:43:19.807Z,81.60
2023-03-02T02:45:47.741Z,81.98
2023-03-02T02:48:18.236Z,81.86
2023-03-02T02:50:46.242Z,81.76
2023-03-02T02:53:22.335Z,82.37
2023-03-02T02:55:51.669Z,82.28
2023-03-02T02:58:48.174Z,82.42
2023-03-02T03:01:16.790Z,81.46
2023-03-02T03:04:05.708Z,82.18
2023-03-02T03:06:42.447Z,82.09
2023-03-02T03:09:11.261Z,82.14
2023-03-02T03:11:41.294Z,81.87
2023-03-02T03:14:09.531Z,82.49
2023-03-02T03:16:37.529Z,82.76
2023-03-02T03:19:25.817Z,82.66
2023-03-02T03:21:58.555Z,82.51
2023-03-02T03:24:26.243Z,82.85
2023-03-02T03:26:54.190Z,82.45
2023-03-02T03:29:24.157Z,82.38
2023-03-02T03:31:51.592Z,82.51
2023-03-02T03:34:17.963Z,82.85
2023-03-02T03:36:44.422Z,82.48
2023-03-02T03:39:12.230Z,82.83
2023-03-02T03:41:38.583Z,82.47
2023-03-02T03:44:05.256Z,82.35
2023-03-02T03:46:33.270Z,82.96
2023-03-02T03:49:00.124Z,82.75
2023-03-02T03:51:26.799Z,82.60
2023-03-02T03:54:02.444Z,82.52
2023-03-02T03:56:31.601Z,82.73
2023-03-02T03:59:07.294Z,83.21
2023-03-02T04:01:39.753Z,82.92
2023-03-02T04:04:10.408Z,83.71
2023-03-02T04:06:37.085Z,83.10
2023-03-02T04:09:04.610Z,83.46
2023-03-02T04:11:33.149Z,83.50
2023-03-02T04:13:59.906Z,83.73
2023-03-02T04:16:27.054Z,83.12
2023-03-02T04:18:53.498Z,83.48
2023-03-02T04:21:20.406Z,84.37
2023-03-02T04:23:46.894Z,83.23
2023-03-02T04:26:13.270Z,82.82
2023-03-02T04:28:39.635Z,83.21
2023-03-02T04:31:06.051Z,83.17
2023-03-02T04:33:32.542Z,83.15
2023-03-02T04:35:58.930Z,83.21
2023-03-02T04:38:29.379Z,83.23
2023-03-02T04:40:57.648Z,83.25
2023-03-02T04:43:25.708Z,83.00
2023-03-02T04:45:53.373Z,82.81
2023-03-02T04:48:20.969Z,82.92
2023-03-02T04:50:47.427Z,83.03
2023-03-02T04:53:13.975Z,83.04
2023-03-02T04:55:40.676Z,82.80
2023-03-02T04:58:07.816Z,82.89
2023-03-02T05:00:35.301Z,83.24
2023-03-02T05:03:02.765Z,82.86
2023-03-02T05:05:29.491Z,82.56
2023-03-02T05:07:56.071Z,83.26
2023-03-02T05:10:23.520Z,83.56
2023-03-02T05:13:02.424Z,83.35
2023-03-02T05:15:36.040Z,83.00
2023-03-02T05:18:03.777Z,83.36
2023-03-02T05:20:31.569Z,83.21
2023-03-02T05:23:00.817Z,83.47
2023-03-02T05:25:28.887Z,82.44
2023-03-02T05:27:55.887Z,83.06
2023-03-02T05:30:23.229Z,83.27
2023-03-02T05:32:51.082Z,83.68
2023-03-02T05:35:18.396Z,83.49
2023-03-02T05:37:44.882Z,82.90
2023-03-02T05:40:17.238Z,82.90
2023-03-02T05:42:43.912Z,83.45
2023-03-02T05:45:19.265Z,82.83
2023-03-02T05:47:45.646Z,82.91
2023-03-02T05:50:13.043Z,82.78
2023-03-02T05:52:39.409Z,83.08
2023-03-02T05:55:06.487Z,82.79
2023-03-02T05:57:32.870Z,82.85
2023-03-02T05:59:59.226Z,83.08
2023-03-02T06:02:25.670Z,83.11
2023-03-02T06:04:52.083Z,82.46
2023-03-02T06:07:18.452Z,82.40
2023-03-02T06:09:44.808Z,82.53
2023-03-02T06:12:11.173Z,83.21
2023-03-02T06:14:37.554Z,84.31
2023-03-02T06:17:03.910Z,84.53
2023-03-02T06:19:30.386Z,84.09
2023-03-02T06:21:56.757Z,84.22
2023-03-02T06:24:23.127Z,84.14
2023-03-02T06:26:49.504Z,83.72
2023-03-02T06:29:16.022Z,84.39
2023-03-02T06:31:42.577Z,84.32
2023-03-02T06:34:08.990Z,84.31
2023-03-02T06:36:38.706Z,84.48
2023-03-02T06:39:06.875Z,84.58
2023-03-02T06:41:35.866Z,84.33
2023-03-02T06:44:02.271Z,84.29
2023-03-02T06:46:28.689Z,84.32
2023-03-02T06:48:55.215Z,84.00
2023-03-02T06:51:21.873Z,84.06
2023-03-02T06:53:48.229Z,84.29
2023-03-02T06:56:14.610Z,84.35
2023-03-02T06:58:40.970Z,84.22
2023-03-02T07:01:08.030Z,83.55
2023-03-02T07:03:36.142Z,83.25
2023-03-02T07:06:03.272Z,82.00
2023-03-02T07:08:29.763Z,82.23
2023-03-02T07:10:56.171Z,82.50
2023-03-02T07:13:22.524Z,82.33
2023-03-02T07:15:48.943Z,81.67
2023-03-02T07:18:15.362Z,81.24
2023-03-02T07:20:41.800Z,80.48
2023-03-02T07:23:08.171Z,81.14
2023-03-02T07:25:34.571Z,80.71
2023-03-02T07:28:00.935Z,80.94
2023-03-02T07:30:27.375Z,82.24
2023-03-02T07:32:53.798Z,80.82
2023-03-02T07:35:20.187Z,80.47
2023-03-02T07:37:46.582Z,80.59
2023-03-02T07:40:13.469Z,79.84
2023-03-02T07:42:39.933Z,80.20
2023-03-02T07:45:06.994Z,79.89
2023-03-02T07:47:33.382Z,79.57
2023-03-02T07:49:59.765Z,79.58
2023-03-02T07:52:28.257Z,80.02
2023-03-02T07:54:54.644Z,79.85
2023-03-02T07:57:21.019Z,79.31
2023-03-02T07:59:47.376Z,80.93
2023-03-02T08:02:15.815Z,80.79
2023-03-02T08:04:43.218Z,81.11
2023-03-02T08:07:09.595Z,78.31
2023-03-02T08:09:38.167Z,78.24
2023-03-02T08:12:04.965Z,78.79
2023-03-02T08:14:31.732Z,78.28
2023-03-02T08:16:58.190Z,78.15
2023-03-02T08:19:26.344Z,78.40
2023-03-02T08:21:52.734Z,78.78
2023-03-02T08:24:19.141Z,78.90
2023-03-02T08:26:45.518Z,79.10
2023-03-02T08:29:11.950Z,78.29
2023-03-02T08:31:38.410Z,78.45
2023-03-02T08:34:05.724Z,79.72
2023-03-02T08:36:32.425Z,79.45
2023-03-02T08:38:59.001Z,77.61
2023-03-02T08:41:26.068Z,76.83
2023-03-02T08:43:55.408Z,75.12
2023-03-02T08:46:22.245Z,75.92
2023-03-02T08:48:50.663Z,75.58
2023-03-02T08:51:20.611Z,75.87
2023-03-02T08:53:50.471Z,75.05
2023-03-02T08:56:33.014Z,74.86
2023-03-02T08:59:02.202Z,75.02
2023-03-02T09:01:32.222Z,75.17
2023-03-02T09:04:00.633Z,74.49
2023-03-02T09:06:28.632Z,73.62
2023-03-02T09:08:55.074Z,73.36
2023-03-02T09:11:21.958Z,73.64
2023-03-02T09:13:48.432Z,72.39
2023-03-02T09:16:15.518Z,72.92
2023-03-02T09:18:42.042Z,73.35
2023-03-02T09:21:08.691Z,72.32
2023-03-02T09:23:36.551Z,72.59
2023-03-02T09:26:04.660Z,72.51
2023-03-02T09:28:31.276Z,71.88
2023-03-02T09:30:59.726Z,72.06
2023-03-02T09:33:26.548Z,71.25
2023-03-02T09:35:52.999Z,70.87
2023-03-02T09:38:19.524Z,71.28
2023-03-02T09:41:18.703Z,71.17
2023-03-02T09:44:16.737Z,71.31
2023-03-02T09:46:49.671Z,70.42
2023-03-02T09:49:31.201Z,69.63
2023-03-02T09:52:30.394Z,69.26
2023-03-02T09:55:01.995Z,69.48
2023-03-02T09:57:34.684Z,68.33
2023-03-02T10:00:19.441Z,68.40
2023-03-02T10:02:49.407Z,68.10
2023-03-02T10:05:30.885Z,68.29
2023-03-02T10:07:59.316Z,68.26
2023-03-02T10:10:48.032Z,68.09
2023-03-02T10:13:21.098Z,67.72
2023-03-02T10:16:03.621Z,67.40
2023-03-02T10:18:40.596Z,64.01
2023-03-02T10:21:21.390Z,63.66
2023-03-02T10:24:07.743Z,64.20
2023-03-02T10:26:50.473Z,64.83
2023-03-02T10:29:43.442Z,62.87
2023-03-02T10:32:09.760Z,62.13
2023-03-02T10:34:38.071Z,61.83
2023-03-02T10:37:13.700Z,61.03
2023-03-02T10:39:40.189Z,59.27
2023-03-02T10:42:22.762Z,59.23
2023-03-02T10:44:53.660Z,58.50
2023-03-02T10:47:25.716Z,59.13
2023-03-02T10:49:53.711Z,59.41
2023-03-02T10:52:28.559Z,60.06
2023-03-02T10:55:14.289Z,60.04
2023-03-02T10:57:43.287Z,59.77
2023-03-02T11:00:15.847Z,58.45
2023-03-02T11:03:02.536Z,58.89
2023-03-02T11:05:34.985Z,56.23
2023-03-02T11:08:08.467Z,54.83
2023-03-02T11:10:37.697Z,53.77
2023-03-02T11:13:33.134Z,51.79
2023-03-02T11:16:03.276Z,51.99
2023-03-02T11:18:42.058Z,52.46
2023-03-02T11:21:15.162Z,51.70
2023-03-02T11:23:52.244Z,53.51
2023-03-02T11:26:24.665Z,49.05
2023-03-02T11:29:02.908Z,50.67
2023-03-02T11:31:47.359Z,49.06
2023-03-02T11:34:27.390Z,49.61
2023-03-02T11:37:15.695Z,50.52
2023-03-02T11:39:55.831Z,48.26
2023-03-02T11:42:30.865Z,47.37
2023-03-02T11:45:02.584Z,46.83
2023-03-02T11:47:32.284Z,47.97
2023-03-02T11:50:05.276Z,46.58
2023-03-02T11:52:37.660Z,48.00
2023-03-02T11:55:18.492Z,46.22
2023-03-02T11:58:05.506Z,45.77
2023-03-02T12:00:36.090Z,44.87
2023-03-02T12:03:10.518Z,45.03
2023-03-02T12:05:39.767Z,44.73
2023-03-02T12:08:28.712Z,45.87
2023-03-02T12:11:03.457Z,45.68
2023-03-02T12:13:36.357Z,46.33
2023-03-02T12:16:04.811Z,44.95
2023-03-02T12:18:43.334Z,44.83
2023-03-02T12:21:21.714Z,43.96
2023-03-02T12:23:50.942Z,43.74
2023-03-02T12:26:20.330Z,40.49
2023-03-02T12:28:59.069Z,41.46
2023-03-02T12:31:25.913Z,42.04
2023-03-02T12:33:53.071Z,41.92
2023-03-02T12:36:27.189Z,41.65
2023-03-02T12:38:59.986Z,41.13
2023-03-02T12:41:40.037Z,40.16
2023-03-02T12:44:15.647Z,42.00
2023-03-02T12:46:46.348Z,41.18
2023-03-02T12:49:34.519Z,42.88
2023-03-02T12:52:03.988Z,41.91
2023-03-02T12:54:32.919Z,42.54
2023-03-02T12:57:23.025Z,43.47
2023-03-02T12:59:55.044Z,41.44
2023-03-02T13:02:23.941Z,42.65
2023-03-02T13:04:59.193Z,42.80
2023-03-02T13:07:35.098Z,42.68
2023-03-02T13:10:06.588Z,41.17
2023-03-02T13:12:36.109Z,42.16
2023-03-02T13:15:02.809Z,42.04
2023-03-02T13:17:32.819Z,43.40
2023-03-02T13:20:01.311Z,43.87
2023-03-02T13:22:28.519Z,43.42
2023-03-02T13:25:02.081Z,42.64
2023-03-02T13:27:30.036Z,43.48
2023-03-02T13:30:07.624Z,44.32
2023-03-02T13:32:43.097Z,45.31
2023-03-02T13:35:19.286Z,45.27
2023-03-02T13:37:45.878Z,44.90
2023-03-02T13:40:27.688Z,45.74
2023-03-02T13:42:54.778Z,46.35
2023-03-02T13:45:32.517Z,46.77
2023-03-02T13:48:00.421Z,47.71
2023-03-02T13:50:30.295Z,45.40
2023-03-02T13:52:59.666Z,45.92
2023-03-02T13:55:26.804Z,45.53
2023-03-02T13:57:54.603Z,44.21
2023-03-02T14:00:22.720Z,44.39
2023-03-02T14:02:50.411Z,44.14
2023-03-02T14:05:22.781Z,45.35
2023-03-02T14:07:49.597Z,44.61
2023-03-02T14:10:17.992Z,44.68
2023-03-02T14:12:57.213Z,43.46
2023-03-02T14:15:23.916Z,43.23
2023-03-02T14:17:50.407Z,42.86
2023-03-02T14:20:19.482Z,43.27
2023-03-02T14:22:47.448Z,43.84
2023-03-02T14:25:14.684Z,43.90
2023-03-02T14:27:42.605Z,43.85
2023-03-02T14:30:18.634Z,42.39
2023-03-02T14:32:45.760Z,42.46
2023-03-02T14:35:15.569Z,42.67
2023-03-02T14:37:48.983Z,43.74
2023-03-02T14:40:24.184Z,42.67
2023-03-02T14:42:51.860Z,42.61
2023-03-02T14:45:20.026Z,42.30
2023-03-02T14:47:46.720Z,42.99
2023-03-02T14:50:13.483Z,40.96
2023-03-02T14:52:45.834Z,40.66
2023-03-02T14:55:26.535Z,41.64
2023-03-02T14:57:59.717Z,41.92
2023-03-02T15:00:27.152Z,40.95
2023-03-02T15:02:54.148Z,40.21
2023-03-02T15:05:20.902Z,39.93
2023-03-02T15:07:48.500Z,40.85
2023-03-02T15:10:19.316Z,39.53
2023-03-02T15:12:46.219Z,39.78
2023-03-02T15:15:13.294Z,39.14
2023-03-02T15:17:40.617Z,39.33
2023-03-02T15:20:08.811Z,39.45
2023-03-02T15:22:35.266Z,39.58
2023-03-02T15:25:01.718Z,39.92
2023-03-02T15:27:28.130Z,40.18
2023-03-02T15:29:56.701Z,39.72
2023-03-02T15:32:23.412Z,40.46
2023-03-02T15:34:49.826Z,40.56
2023-03-02T15:37:16.441Z,40.60
2023-03-02T15:39:42.805Z,40.81
2023-03-02T15:42:09.250Z,40.80
2023-03-02T15:44:35.707Z,40.62
2023-03-02T15:47:02.175Z,40.82
2023-03-02T15:49:29.424Z,41.61
2023-03-02T15:51:57.588Z,41.33
2023-03-02T15:54:27.977Z,41.59
2023-03-02T15:56:54.545Z,41.20
2023-03-02T15:59:26.933Z,41.73
2023-03-02T16:01:54.417Z,41.23
2023-03-02T16:04:20.784Z,41.48
2023-03-02T16:06:47.404Z,42.30
2023-03-02T16:09:13.823Z,42.79
2023-03-02T16:11:40.213Z,42.57
2023-03-02T16:14:06.626Z,43.08
2023-03-02T16:16:33.254Z,44.22
2023-03-02T16:18:59.782Z,44.85
2023-03-02T16:21:28.475Z,44.96
2023-03-02T16:24:02.860Z,45.79
2023-03-02T16:26:29.525Z,45.19
2023-03-02T16:28:55.948Z,45.85
2023-03-02T16:31:26.576Z,46.61
2023-03-02T16:33:54.769Z,46.71
2023-03-02T16:36:21.877Z,46.82
2023-03-02T16:38:49.232Z,48.48
2023-03-02T16:41:20.928Z,48.05
2023-03-02T16:43:50.946Z,48.11
2023-03-02T16:46:18.652Z,48.61
2023-03-02T16:48:45.742Z,49.38
2023-03-02T16:51:12.373Z,49.20
2023-03-02T16:53:40.710Z,50.49
2023-03-02T16:56:08.437Z,50.85
2023-03-02T16:58:38.240Z,50.68
2023-03-02T17:01:06.738Z,50.61
2023-03-02T17:03:33.202Z,50.56
2023-03-02T17:05:59.698Z,50.90
2023-03-02T17:08:26.375Z,52.61
2023-03-02T17:10:52.753Z,55.03
2023-03-02T17:13:19.244Z,56.55
2023-03-02T17:15:45.706Z,53.32
2023-03-02T17:18:12.093Z,52.26
2023-03-02T17:20:38.619Z,52.32
2023-03-02T17:23:05.747Z,52.32
2023-03-02T17:25:32.206Z,52.57
2023-03-02T17:27:59.480Z,51.84
2023-03-02T17:30:25.871Z,51.94
2023-03-02T17:32:52.347Z,52.04
2023-03-02T17:35:18.722Z,52.15
2023-03-02T17:37:45.134Z,52.14
2023-03-02T17:40:13.968Z,53.91
2023-03-02T17:42:40.658Z,53.96
2023-03-02T17:45:08.229Z,52.29
2023-03-02T17:47:35.222Z,52.16
2023-03-02T17:50:03.665Z,52.64
2023-03-02T17:52:30.032Z,53.15
2023-03-02T17:54:56.457Z,53.73
2023-03-02T17:57:23.145Z,53.55
2023-03-02T17:59:50.406Z,56.10
2023-03-02T18:02:18.124Z,55.53
2023-03-02T18:04:45.594Z,56.11
2023-03-02T18:07:12.851Z,56.56
2023-03-02T18:09:39.652Z,57.38
2023-03-02T18:12:07.444Z,57.35
2023-03-02T18:14:34.827Z,57.35
2023-03-02T18:17:02.065Z,57.51
2023-03-02T18:19:28.591Z,58.02
2023-03-02T18:21:54.946Z,58.07
2023-03-02T18:24:21.466Z,58.45
2023-03-02T18:26:47.841Z,58.89
2023-03-02T18:29:14.185Z,58.81
2023-03-02T18:31:40.624Z,59.37
2023-03-02T18:34:07.412Z,59.78
2023-03-02T18:36:33.810Z,60.61
2023-03-02T18:39:00.458Z,60.83
2023-03-02T18:41:26.837Z,61.29
2023-03-02T18:43:53.275Z,61.36
2023-03-02T18:46:25.976Z,61.69
2023-03-02T18:48:53.569Z,61.66
2023-03-02T18:51:22.276Z,61.45
2023-03-02T18:53:49.379Z,62.06
2023-03-02T18:56:15.736Z,62.09
2023-03-02T18:58:42.128Z,62.30
2023-03-02T19:01:09.021Z,62.29
2023-03-02T19:03:37.044Z,64.89
2023-03-02T19:06:04.335Z,62.32
2023-03-02T19:08:30.826Z,62.37
2023-03-02T19:10:57.305Z,63.93
2023-03-02T19:13:24.178Z,63.74
2023-03-02T19:15:50.561Z,63.86
2023-03-02T19:18:18.862Z,64.71
2023-03-02T19:20:46.551Z,63.89
2023-03-02T19:23:13.424Z,64.85
2023-03-02T19:25:40.202Z,65.79
2023-03-02T19:28:07.116Z,66.95
2023-03-02T19:30:34.704Z,69.84
2023-03-02T19:33:01.849Z,69.29
2023-03-02T19:35:29.773Z,69.05
2023-03-02T19:37:56.651Z,69.04
2023-03-02T19:40:25.018Z,70.00
2023-03-02T19:42:52.849Z,70.27
2023-03-02T19:45:25.280Z,71.26
2023-03-02T19:47:51.677Z,72.21
2023-03-02T19:50:19.720Z,73.21
2023-03-02T19:52:46.106Z,73.19
2023-03-02T19:55:17.045Z,73.30
2023-03-02T19:57:43.538Z,74.00
2023-03-02T20:00:15.447Z,74.05
2023-03-02T20:02:41.850Z,74.79
2023-03-02T20:05:10.186Z,75.52
2023-03-02T20:07:37.852Z,76.00
2023-03-02T20:10:07.494Z,76.38
2023-03-02T20:12:34.511Z,76.13
2023-03-02T20:15:01.080Z,76.65
2023-03-02T20:17:27.490Z,76.84
2023-03-02T20:19:55.820Z,76.91
2023-03-02T20:22:25.779Z,77.08
2023-03-02T20:24:52.215Z,77.56
2023-03-02T20:27:18.575Z,77.74
2023-03-02T20:29:45.217Z,78.03
2023-03-02T20:32:12.682Z,78.59
2023-03-02T20:34:41.425Z,78.21
2023-03-02T20:37:08.099Z,78.83
2023-03-02T20:39:37.589Z,79.04
2023-03-02T20:42:06.298Z,78.71
2023-03-02T20:44:33.486Z,78.85
2023-03-02T20:47:06.109Z,78.97
2023-03-02T20:49:32.486Z,78.88
2023-03-02T20:52:00.293Z,79.58
2023-03-02T20:54:33.295Z,79.17
2023-03-02T20:56:59.883Z,80.04
2023-03-02T20:59:27.104Z,80.11
2023-03-02T21:01:53.880Z,80.03
2023-03-02T21:04:21.958Z,79.97
2023-03-02T21:06:48.876Z,80.26
2023-03-02T21:09:17.827Z,80.33
2023-03-02T21:11:45.514Z,80.26
2023-03-02T21:14:14.093Z,80.25
2023-03-02T21:16:42.672Z,80.29
2023-03-02T21:19:13.590Z,80.19
2023-03-02T21:21:42.377Z,80.80
2023-03-02T21:24:11.680Z,80.24
2023-03-02T21:26:38.537Z,80.67
2023-03-02T21:29:06.243Z,80.20
2023-03-02T21:31:32.969Z,80.55
2023-03-02T21:34:00.606Z,80.30
2023-03-02T21:36:27.817Z,80.33
2023-03-02T21:38:54.430Z,79.96
2023-03-02T21:41:21.153Z,80.96
2023-03-02T21:43:48.438Z,80.07
2023-03-02T21:46:18.466Z,80.60
2023-03-02T21:48:46.024Z,81.11
2023-03-02T21:51:13.426Z,81.06
2023-03-02T21:53:40.002Z,81.45
2023-03-02T21:56:07.715Z,81.85
2023-03-02T21:58:34.609Z,81.53
2023-03-02T22:01:01.211Z,81.41
2023-03-02T22:03:27.640Z,82.36
2023-03-02T22:05:54.034Z,81.78
2023-03-02T22:08:21.156Z,81.30
2023-03-02T22:10:50.203Z,81.15
2023-03-02T22:13:34.777Z,82.10
2023-03-02T22:16:24.497Z,82.01
2023-03-02T22:18:57.153Z,82.31
2023-03-02T22:21:31.250Z,82.89
2023-03-02T22:24:06.809Z,83.08
2023-03-02T22:26:35.558Z,83.62
2023-03-02T22:29:15.233Z,83.88
2023-03-02T22:31:48.225Z,83.36
2023-03-02T22:34:19.337Z,84.40
2023-03-02T22:36:46.822Z,83.98
2023-03-02T22:39:18.126Z,83.86
2023-03-02T22:41:44.461Z,83.46
2023-03-02T22:44:12.885Z,83.84
2023-03-02T22:46:40.190Z,83.79
2023-03-02T22:49:16.637Z,83.97
2023-03-02T22:51:44.451Z,84.31
2023-03-02T22:54:24.201Z,84.18
2023-03-02T22:56:53.452Z,84.00
2023-03-02T22:59:24.311Z,84.95
2023-03-02T23:02:15.297Z,84.52
2023-03-02T23:04:49.112Z,84.65
2023-03-02T23:07:21.165Z,83.90
2023-03-02T23:09:48.383Z,84.11
2023-03-02T23:12:23.654Z,84.24
2023-03-02T23:14:58.365Z,83.64
2023-03-02T23:17:35.205Z,83.45
2023-03-02T23:20:02.522Z,83.79
2023-03-02T23:22:30.553Z,83.84
2023-03-02T23:24:56.950Z,84.15
2023-03-02T23:27:24.343Z,84.40
2023-03-02T23:29:51.968Z,84.81
2023-03-02T23:32:19.587Z,84.77
2023-03-02T23:34:46.253Z,84.36
2023-03-02T23:37:12.879Z,84.74
2023-03-02T23:39:39.419Z,84.56
2023-03-02T23:42:05.864Z,84.19
2023-03-02T23:44:32.228Z,84.86
2023-03-02T23:46:58.648Z,85.23
2023-03-02T23:49:24.996Z,85.20
2023-03-02T23:51:51.345Z,85.28
2023-03-02T23:54:17.802Z,85.99
2023-03-02T23:56:44.156Z,86.86
2023-03-02T23:59:10.526Z,86.46
